sensor_id;sensor_type;location;lat;lon;timestamp;P1;durP1;ratioP1;P2;durP2;ratioP2
46751;SDS011;32497;48.936;9.270;2024-01-07T00:04:24;7.23;;;2.13;;
46751;SDS011;32497;48.936;9.270;2024-01-07T00:09:25;6.47;;;3.03;;
46751;SDS011;32497;48.936;9.270;2024-01-07T00:14:26;3.77;;;2.37;;
46751;SDS011;32497;48.936;9.270;2024-01-07T00:19:29;6.33;;;2.33;;
46751;SDS011;32497;48.936;9.270;2024-01-07T00:24:30;5.67;;;2.43;;
46751;SDS011;32497;48.936;9.270;2024-01-07T00:29:31;6.97;;;2.67;;
46751;SDS011;32497;48.936;9.270;2024-01-07T00:34:33;7.73;;;2.90;;
46751;SDS011;32497;48.936;9.270;2024-01-07T00:39:34;2.07;;;1.53;;
46751;SDS011;32497;48.936;9.270;2024-01-07T00:44:36;8.70;;;2.93;;
46751;SDS011;32497;48.936;9.270;2024-01-07T00:49:39;4.70;;;1.70;;
46751;SDS011;32497;48.936;9.270;2024-01-07T00:54:40;5.33;;;2.17;;
46751;SDS011;32497;48.936;9.270;2024-01-07T00:59:41;5.87;;;2.30;;
46751;SDS011;32497;48.936;9.270;2024-01-07T01:04:44;5.40;;;2.70;;
46751;SDS011;32497;48.936;9.270;2024-01-07T01:09:45;4.27;;;1.73;;
46751;SDS011;32497;48.936;9.270;2024-01-07T01:14:46;4.77;;;2.47;;
46751;SDS011;32497;48.936;9.270;2024-01-07T01:19:48;7.83;;;2.23;;
46751;SDS011;32497;48.936;9.270;2024-01-07T01:24:49;7.53;;;2.67;;
46751;SDS011;32497;48.936;9.270;2024-01-07T01:29:50;6.40;;;2.03;;
46751;SDS011;32497;48.936;9.270;2024-01-07T01:34:53;5.93;;;2.83;;
46751;SDS011;32497;48.936;9.270;2024-01-07T01:39:54;5.67;;;2.23;;
46751;SDS011;32497;48.936;9.270;2024-01-07T01:44:55;3.87;;;2.37;;
46751;SDS011;32497;48.936;9.270;2024-01-07T01:49:57;7.40;;;2.30;;
46751;SDS011;32497;48.936;9.270;2024-01-07T01:54:59;5.03;;;2.33;;
46751;SDS011;32497;48.936;9.270;2024-01-07T02:00:01;8.50;;;2.37;;
46751;SDS011;32497;48.936;9.270;2024-01-07T02:05:04;7.50;;;2.87;;
46751;SDS011;32497;48.936;9.270;2024-01-07T02:10:06;5.50;;;3.23;;
46751;SDS011;32497;48.936;9.270;2024-01-07T02:15:08;6.17;;;2.27;;
46751;SDS011;32497;48.936;9.270;2024-01-07T02:20:11;5.70;;;2.33;;
46751;SDS011;32497;48.936;9.270;2024-01-07T02:25:13;4.83;;;2.00;;
46751;SDS011;32497;48.936;9.270;2024-01-07T02:30:14;3.10;;;2.07;;
46751;SDS011;32497;48.936;9.270;2024-01-07T02:35:15;2.73;;;1.63;;
46751;SDS011;32497;48.936;9.270;2024-01-07T02:40:18;3.43;;;1.93;;
46751;SDS011;32497;48.936;9.270;2024-01-07T02:45:19;4.57;;;1.70;;
46751;SDS011;32497;48.936;9.270;2024-01-07T02:50:20;7.50;;;2.27;;
46751;SDS011;32497;48.936;9.270;2024-01-07T02:55:22;2.13;;;1.47;;
46751;SDS011;32497;48.936;9.270;2024-01-07T03:00:23;3.40;;;1.70;;
46751;SDS011;32497;48.936;9.270;2024-01-07T03:05:25;3.53;;;2.23;;
46751;SDS011;32497;48.936;9.270;2024-01-07T03:10:27;3.97;;;2.33;;
46751;SDS011;32497;48.936;9.270;2024-01-07T03:15:28;5.50;;;1.97;;
46751;SDS011;32497;48.936;9.270;2024-01-07T03:20:29;2.93;;;2.20;;
46751;SDS011;32497;48.936;9.270;2024-01-07T03:25:32;4.77;;;1.97;;
46751;SDS011;32497;48.936;9.270;2024-01-07T03:30:34;5.33;;;1.80;;
46751;SDS011;32497;48.936;9.270;2024-01-07T03:35:35;7.83;;;1.80;;
46751;SDS011;32497;48.936;9.270;2024-01-07T03:40:38;4.33;;;1.67;;
46751;SDS011;32497;48.936;9.270;2024-01-07T03:45:39;3.07;;;1.53;;
46751;SDS011;32497;48.936;9.270;2024-01-07T03:50:40;4.30;;;1.77;;
46751;SDS011;32497;48.936;9.270;2024-01-07T03:55:42;2.63;;;1.10;;
46751;SDS011;32497;48.936;9.270;2024-01-07T04:00:44;4.73;;;1.83;;
46751;SDS011;32497;48.936;9.270;2024-01-07T04:05:45;1.97;;;1.23;;
46751;SDS011;32497;48.936;9.270;2024-01-07T04:10:47;3.47;;;1.40;;
46751;SDS011;32497;48.936;9.270;2024-01-07T04:15:49;4.20;;;1.73;;
46751;SDS011;32497;48.936;9.270;2024-01-07T04:20:50;3.93;;;1.37;;
46751;SDS011;32497;48.936;9.270;2024-01-07T04:25:52;2.77;;;1.33;;
46751;SDS011;32497;48.936;9.270;2024-01-07T04:30:54;4.00;;;1.63;;
46751;SDS011;32497;48.936;9.270;2024-01-07T04:35:55;3.90;;;1.57;;
46751;SDS011;32497;48.936;9.270;2024-01-07T04:40:57;2.53;;;1.37;;
46751;SDS011;32497;48.936;9.270;2024-01-07T04:45:58;4.23;;;1.67;;
46751;SDS011;32497;48.936;9.270;2024-01-07T04:50:59;7.90;;;1.70;;
46751;SDS011;32497;48.936;9.270;2024-01-07T04:56:02;3.80;;;2.10;;
46751;SDS011;32497;48.936;9.270;2024-01-07T05:01:03;2.53;;;1.57;;
46751;SDS011;32497;48.936;9.270;2024-01-07T05:06:04;3.33;;;1.53;;
46751;SDS011;32497;48.936;9.270;2024-01-07T05:11:09;3.47;;;1.17;;
46751;SDS011;32497;48.936;9.270;2024-01-07T05:16:17;4.90;;;1.27;;
46751;SDS011;32497;48.936;9.270;2024-01-07T05:21:19;2.60;;;1.40;;
46751;SDS011;32497;48.936;9.270;2024-01-07T05:26:21;2.97;;;1.50;;
46751;SDS011;32497;48.936;9.270;2024-01-07T05:31:22;3.40;;;1.73;;
46751;SDS011;32497;48.936;9.270;2024-01-07T05:36:23;5.87;;;1.67;;
46751;SDS011;32497;48.936;9.270;2024-01-07T05:41:26;0.97;;;0.67;;
46751;SDS011;32497;48.936;9.270;2024-01-07T05:46:27;4.87;;;1.73;;
46751;SDS011;32497;48.936;9.270;2024-01-07T05:51:28;2.17;;;1.20;;
46751;SDS011;32497;48.936;9.270;2024-01-07T05:56:30;3.57;;;1.93;;
46751;SDS011;32497;48.936;9.270;2024-01-07T06:01:31;5.07;;;1.17;;
46751;SDS011;32497;48.936;9.270;2024-01-07T06:06:33;2.47;;;1.00;;
46751;SDS011;32497;48.936;9.270;2024-01-07T06:11:35;4.33;;;1.60;;
46751;SDS011;32497;48.936;9.270;2024-01-07T06:16:36;2.53;;;1.33;;
46751;SDS011;32497;48.936;9.270;2024-01-07T06:21:37;2.47;;;0.90;;
46751;SDS011;32497;48.936;9.270;2024-01-07T06:26:39;4.80;;;1.37;;
46751;SDS011;32497;48.936;9.270;2024-01-07T06:31:43;2.37;;;1.00;;
46751;SDS011;32497;48.936;9.270;2024-01-07T06:36:45;2.83;;;1.40;;
46751;SDS011;32497;48.936;9.270;2024-01-07T06:41:47;3.20;;;1.73;;
46751;SDS011;32497;48.936;9.270;2024-01-07T06:46:48;6.50;;;1.37;;
46751;SDS011;32497;48.936;9.270;2024-01-07T06:51:50;1.47;;;1.10;;
46751;SDS011;32497;48.936;9.270;2024-01-07T06:56:52;2.40;;;1.03;;
46751;SDS011;32497;48.936;9.270;2024-01-07T07:01:53;2.47;;;1.33;;
46751;SDS011;32497;48.936;9.270;2024-01-07T07:06:54;5.60;;;0.83;;
46751;SDS011;32497;48.936;9.270;2024-01-07T07:11:57;0.83;;;0.57;;
46751;SDS011;32497;48.936;9.270;2024-01-07T07:16:58;1.90;;;0.70;;
46751;SDS011;32497;48.936;9.270;2024-01-07T07:21:59;3.30;;;0.87;;
46751;SDS011;32497;48.936;9.270;2024-01-07T07:27:01;1.20;;;0.57;;
46751;SDS011;32497;48.936;9.270;2024-01-07T07:32:03;0.97;;;0.50;;
46751;SDS011;32497;48.936;9.270;2024-01-07T07:37:04;0.93;;;0.33;;
46751;SDS011;32497;48.936;9.270;2024-01-07T07:42:07;1.57;;;0.43;;
46751;SDS011;32497;48.936;9.270;2024-01-07T07:47:08;2.80;;;0.70;;
46751;SDS011;32497;48.936;9.270;2024-01-07T07:52:09;1.53;;;0.50;;
46751;SDS011;32497;48.936;9.270;2024-01-07T07:57:12;1.40;;;0.40;;
46751;SDS011;32497;48.936;9.270;2024-01-07T08:02:13;3.03;;;0.67;;
46751;SDS011;32497;48.936;9.270;2024-01-07T08:07:14;1.33;;;0.87;;
46751;SDS011;32497;48.936;9.270;2024-01-07T08:12:16;2.07;;;0.83;;
46751;SDS011;32497;48.936;9.270;2024-01-07T08:17:17;4.57;;;1.53;;
46751;SDS011;32497;48.936;9.270;2024-01-07T08:22:18;2.23;;;1.10;;
46751;SDS011;32497;48.936;9.270;2024-01-07T08:27:21;1.03;;;0.53;;
46751;SDS011;32497;48.936;9.270;2024-01-07T08:32:22;1.10;;;0.57;;
46751;SDS011;32497;48.936;9.270;2024-01-07T08:37:23;0.30;;;0.20;;
46751;SDS011;32497;48.936;9.270;2024-01-07T08:42:26;1.37;;;0.47;;
46751;SDS011;32497;48.936;9.270;2024-01-07T08:47:27;1.70;;;0.60;;
46751;SDS011;32497;48.936;9.270;2024-01-07T08:52:28;2.10;;;0.20;;
46751;SDS011;32497;48.936;9.270;2024-01-07T08:57:31;0.43;;;0.43;;
46751;SDS011;32497;48.936;9.270;2024-01-07T09:02:32;0.27;;;0.27;;
46751;SDS011;32497;48.936;9.270;2024-01-07T09:07:33;1.13;;;0.43;;
46751;SDS011;32497;48.936;9.270;2024-01-07T09:12:35;0.37;;;0.37;;
46751;SDS011;32497;48.936;9.270;2024-01-07T09:17:37;0.17;;;0.17;;
46751;SDS011;32497;48.936;9.270;2024-01-07T09:22:38;0.77;;;0.50;;
46751;SDS011;32497;48.936;9.270;2024-01-07T09:27:41;0.40;;;0.30;;
46751;SDS011;32497;48.936;9.270;2024-01-07T09:32:42;1.20;;;0.63;;
46751;SDS011;32497;48.936;9.270;2024-01-07T09:37:43;0.70;;;0.40;;
46751;SDS011;32497;48.936;9.270;2024-01-07T09:42:46;0.53;;;0.23;;
46751;SDS011;32497;48.936;9.270;2024-01-07T09:47:47;1.27;;;0.90;;
46751;SDS011;32497;48.936;9.270;2024-01-07T09:52:48;2.40;;;0.70;;
46751;SDS011;32497;48.936;9.270;2024-01-07T09:57:55;1.53;;;0.30;;
46751;SDS011;32497;48.936;9.270;2024-01-07T10:02:56;0.50;;;0.13;;
46751;SDS011;32497;48.936;9.270;2024-01-07T10:07:57;0.97;;;0.60;;
46751;SDS011;32497;48.936;9.270;2024-01-07T10:12:59;1.33;;;0.70;;
46751;SDS011;32497;48.936;9.270;2024-01-07T10:18:04;2.20;;;0.80;;
46751;SDS011;32497;48.936;9.270;2024-01-07T10:23:05;0.67;;;0.20;;
46751;SDS011;32497;48.936;9.270;2024-01-07T10:28:08;0.67;;;0.33;;
46751;SDS011;32497;48.936;9.270;2024-01-07T10:33:09;2.60;;;1.20;;
46751;SDS011;32497;48.936;9.270;2024-01-07T10:38:10;0.80;;;0.40;;
46751;SDS011;32497;48.936;9.270;2024-01-07T10:43:13;1.70;;;0.67;;
46751;SDS011;32497;48.936;9.270;2024-01-07T10:48:17;0.97;;;0.70;;
46751;SDS011;32497;48.936;9.270;2024-01-07T10:53:20;3.23;;;1.23;;
46751;SDS011;32497;48.936;9.270;2024-01-07T10:58:23;1.20;;;0.57;;
46751;SDS011;32497;48.936;9.270;2024-01-07T11:03:27;1.90;;;0.60;;
46751;SDS011;32497;48.936;9.270;2024-01-07T11:08:37;3.67;;;0.73;;
46751;SDS011;32497;48.936;9.270;2024-01-07T11:13:44;0.93;;;0.40;;
46751;SDS011;32497;48.936;9.270;2024-01-07T11:18:46;0.93;;;0.50;;
46751;SDS011;32497;48.936;9.270;2024-01-07T11:23:50;0.40;;;0.40;;
46751;SDS011;32497;48.936;9.270;2024-01-07T11:28:53;0.40;;;0.20;;
46751;SDS011;32497;48.936;9.270;2024-01-07T11:33:55;1.17;;;0.57;;
46751;SDS011;32497;48.936;9.270;2024-01-07T11:38:56;0.67;;;0.30;;
46751;SDS011;32497;48.936;9.270;2024-01-07T11:43:59;0.57;;;0.43;;
46751;SDS011;32497;48.936;9.270;2024-01-07T11:49:00;2.67;;;0.90;;
46751;SDS011;32497;48.936;9.270;2024-01-07T11:54:01;2.47;;;0.53;;
46751;SDS011;32497;48.936;9.270;2024-01-07T11:59:04;2.50;;;0.83;;
46751;SDS011;32497;48.936;9.270;2024-01-07T12:04:05;0.50;;;0.50;;
46751;SDS011;32497;48.936;9.270;2024-01-07T12:09:06;1.67;;;1.00;;
46751;SDS011;32497;48.936;9.270;2024-01-07T12:14:09;1.80;;;0.77;;
46751;SDS011;32497;48.936;9.270;2024-01-07T12:19:11;1.33;;;0.63;;
46751;SDS011;32497;48.936;9.270;2024-01-07T12:24:12;2.33;;;1.10;;
46751;SDS011;32497;48.936;9.270;2024-01-07T12:29:15;2.33;;;1.23;;
46751;SDS011;32497;48.936;9.270;2024-01-07T12:34:16;1.03;;;0.47;;
46751;SDS011;32497;48.936;9.270;2024-01-07T12:39:17;0.60;;;0.33;;
46751;SDS011;32497;48.936;9.270;2024-01-07T12:44:20;1.07;;;0.73;;
46751;SDS011;32497;48.936;9.270;2024-01-07T12:49:21;1.80;;;0.87;;
46751;SDS011;32497;48.936;9.270;2024-01-07T12:54:22;1.50;;;0.73;;
46751;SDS011;32497;48.936;9.270;2024-01-07T12:59:24;1.53;;;1.27;;
46751;SDS011;32497;48.936;9.270;2024-01-07T13:04:25;2.30;;;1.10;;
46751;SDS011;32497;48.936;9.270;2024-01-07T13:09:27;1.43;;;0.83;;
46751;SDS011;32497;48.936;9.270;2024-01-07T13:14:29;2.40;;;1.10;;
46751;SDS011;32497;48.936;9.270;2024-01-07T13:19:30;1.63;;;0.87;;
46751;SDS011;32497;48.936;9.270;2024-01-07T13:24:31;1.27;;;0.80;;
46751;SDS011;32497;48.936;9.270;2024-01-07T13:29:34;2.67;;;0.87;;
46751;SDS011;32497;48.936;9.270;2024-01-07T13:34:35;6.37;;;0.90;;
46751;SDS011;32497;48.936;9.270;2024-01-07T13:39:37;1.93;;;1.00;;
46751;SDS011;32497;48.936;9.270;2024-01-07T13:44:39;1.70;;;1.03;;
46751;SDS011;32497;48.936;9.270;2024-01-07T13:49:40;2.93;;;0.60;;
46751;SDS011;32497;48.936;9.270;2024-01-07T13:54:41;2.40;;;1.30;;
46751;SDS011;32497;48.936;9.270;2024-01-07T13:59:44;0.83;;;0.63;;
46751;SDS011;32497;48.936;9.270;2024-01-07T14:04:45;0.47;;;0.37;;
46751;SDS011;32497;48.936;9.270;2024-01-07T14:09:46;2.67;;;1.40;;
46751;SDS011;32497;48.936;9.270;2024-01-07T14:14:49;1.77;;;0.87;;
46751;SDS011;32497;48.936;9.270;2024-01-07T14:19:50;0.30;;;0.30;;
46751;SDS011;32497;48.936;9.270;2024-01-07T14:24:51;2.30;;;0.70;;
46751;SDS011;32497;48.936;9.270;2024-01-07T14:29:53;0.93;;;0.77;;
46751;SDS011;32497;48.936;9.270;2024-01-07T14:34:54;0.73;;;0.47;;
46751;SDS011;32497;48.936;9.270;2024-01-07T14:39:55;4.53;;;1.50;;
46751;SDS011;32497;48.936;9.270;2024-01-07T14:44:58;0.33;;;0.33;;
46751;SDS011;32497;48.936;9.270;2024-01-07T14:49:59;1.47;;;0.93;;
46751;SDS011;32497;48.936;9.270;2024-01-07T14:55:00;2.73;;;0.70;;
46751;SDS011;32497;48.936;9.270;2024-01-07T15:00:03;0.60;;;0.30;;
46751;SDS011;32497;48.936;9.270;2024-01-07T15:05:05;0.20;;;0.20;;
46751;SDS011;32497;48.936;9.270;2024-01-07T15:10:07;0.23;;;0.23;;
46751;SDS011;32497;48.936;9.270;2024-01-07T15:15:10;1.47;;;0.67;;
46751;SDS011;32497;48.936;9.270;2024-01-07T15:20:11;1.93;;;1.00;;
46751;SDS011;32497;48.936;9.270;2024-01-07T15:25:12;1.10;;;0.50;;
46751;SDS011;32497;48.936;9.270;2024-01-07T15:30:15;0.90;;;0.60;;
46751;SDS011;32497;48.936;9.270;2024-01-07T15:35:16;4.17;;;1.03;;
46751;SDS011;32497;48.936;9.270;2024-01-07T15:40:17;0.47;;;0.47;;
46751;SDS011;32497;48.936;9.270;2024-01-07T15:45:19;1.43;;;0.60;;
46751;SDS011;32497;48.936;9.270;2024-01-07T15:50:20;2.33;;;1.27;;
46751;SDS011;32497;48.936;9.270;2024-01-07T15:55:21;4.43;;;0.97;;
46751;SDS011;32497;48.936;9.270;2024-01-07T16:00:24;3.70;;;0.73;;
46751;SDS011;32497;48.936;9.270;2024-01-07T16:05:25;1.57;;;0.90;;
46751;SDS011;32497;48.936;9.270;2024-01-07T16:10:26;0.57;;;0.53;;
46751;SDS011;32497;48.936;9.270;2024-01-07T16:15:28;1.30;;;0.40;;
46751;SDS011;32497;48.936;9.270;2024-01-07T16:20:29;1.27;;;0.70;;
46751;SDS011;32497;48.936;9.270;2024-01-07T16:25:30;0.10;;;0.10;;
46751;SDS011;32497;48.936;9.270;2024-01-07T16:30:33;0.23;;;0.23;;
46751;SDS011;32497;48.936;9.270;2024-01-07T16:35:34;1.93;;;1.10;;
46751;SDS011;32497;48.936;9.270;2024-01-07T16:40:35;0.50;;;0.50;;
46751;SDS011;32497;48.936;9.270;2024-01-07T16:45:38;0.63;;;0.63;;
46751;SDS011;32497;48.936;9.270;2024-01-07T16:50:39;1.50;;;0.63;;
46751;SDS011;32497;48.936;9.270;2024-01-07T16:55:40;0.83;;;0.73;;
46751;SDS011;32497;48.936;9.270;2024-01-07T17:00:42;9.37;;;0.70;;
46751;SDS011;32497;48.936;9.270;2024-01-07T17:05:44;0.20;;;0.20;;
46751;SDS011;32497;48.936;9.270;2024-01-07T17:10:45;1.20;;;0.40;;
46751;SDS011;32497;48.936;9.270;2024-01-07T17:15:48;1.63;;;0.37;;
46751;SDS011;32497;48.936;9.270;2024-01-07T17:20:49;3.40;;;0.40;;
46751;SDS011;32497;48.936;9.270;2024-01-07T17:25:50;0.77;;;0.60;;
46751;SDS011;32497;48.936;9.270;2024-01-07T17:30:52;0.70;;;0.50;;
46751;SDS011;32497;48.936;9.270;2024-01-07T17:35:54;0.57;;;0.57;;
46751;SDS011;32497;48.936;9.270;2024-01-07T17:40:55;3.50;;;0.67;;
46751;SDS011;32497;48.936;9.270;2024-01-07T17:45:57;1.10;;;0.73;;
46751;SDS011;32497;48.936;9.270;2024-01-07T17:50:58;0.30;;;0.30;;
46751;SDS011;32497;48.936;9.270;2024-01-07T17:55:59;0.53;;;0.30;;
46751;SDS011;32497;48.936;9.270;2024-01-07T18:01:02;1.13;;;0.67;;
46751;SDS011;32497;48.936;9.270;2024-01-07T18:06:03;0.20;;;0.20;;
46751;SDS011;32497;48.936;9.270;2024-01-07T18:11:04;0.20;;;0.10;;
46751;SDS011;32497;48.936;9.270;2024-01-07T18:16:07;0.37;;;0.27;;
46751;SDS011;32497;48.936;9.270;2024-01-07T18:21:08;0.20;;;0.20;;
46751;SDS011;32497;48.936;9.270;2024-01-07T18:26:13;0.83;;;0.57;;
46751;SDS011;32497;48.936;9.270;2024-01-07T18:31:15;0.63;;;0.20;;
46751;SDS011;32497;48.936;9.270;2024-01-07T18:36:16;0.57;;;0.53;;
46751;SDS011;32497;48.936;9.270;2024-01-07T18:41:20;0.30;;;0.20;;
46751;SDS011;32497;48.936;9.270;2024-01-07T18:46:26;0.20;;;0.20;;
46751;SDS011;32497;48.936;9.270;2024-01-07T18:51:27;0.63;;;0.33;;
46751;SDS011;32497;48.936;9.270;2024-01-07T18:56:28;1.20;;;0.60;;
46751;SDS011;32497;48.936;9.270;2024-01-07T19:01:31;0.40;;;0.30;;
46751;SDS011;32497;48.936;9.270;2024-01-07T19:06:32;0.33;;;0.33;;
46751;SDS011;32497;48.936;9.270;2024-01-07T19:11:33;0.20;;;0.20;;
46751;SDS011;32497;48.936;9.270;2024-01-07T19:16:35;0.73;;;0.33;;
46751;SDS011;32497;48.936;9.270;2024-01-07T19:21:40;1.50;;;0.40;;
46751;SDS011;32497;48.936;9.270;2024-01-07T19:26:41;0.43;;;0.43;;
46751;SDS011;32497;48.936;9.270;2024-01-07T19:31:44;4.17;;;1.00;;
46751;SDS011;32497;48.936;9.270;2024-01-07T19:36:45;0.73;;;0.33;;
46751;SDS011;32497;48.936;9.270;2024-01-07T19:41:46;0.23;;;0.10;;
46751;SDS011;32497;48.936;9.270;2024-01-07T19:46:48;0.10;;;0.10;;
46751;SDS011;32497;48.936;9.270;2024-01-07T19:51:49;0.03;;;0.03;;
46751;SDS011;32497;48.936;9.270;2024-01-07T19:56:51;0.70;;;0.50;;
46751;SDS011;32497;48.936;9.270;2024-01-07T20:01:53;0.17;;;0.17;;
46751;SDS011;32497;48.936;9.270;2024-01-07T20:06:54;0.17;;;0.17;;
46751;SDS011;32497;48.936;9.270;2024-01-07T20:11:55;2.73;;;0.20;;
46751;SDS011;32497;48.936;9.270;2024-01-07T20:16:58;0.30;;;0.30;;
46751;SDS011;32497;48.936;9.270;2024-01-07T20:21:59;0.47;;;0.20;;
46751;SDS011;32497;48.936;9.270;2024-01-07T20:27:00;1.60;;;0.40;;
46751;SDS011;32497;48.936;9.270;2024-01-07T20:32:03;1.70;;;0.80;;
46751;SDS011;32497;48.936;9.270;2024-01-07T20:37:04;0.10;;;0.10;;
46751;SDS011;32497;48.936;9.270;2024-01-07T20:42:06;0.00;;;0.00;;
46751;SDS011;32497;48.936;9.270;2024-01-07T20:47:08;0.10;;;0.10;;
46751;SDS011;32497;48.936;9.270;2024-01-07T20:52:09;0.20;;;0.20;;
46751;SDS011;32497;48.936;9.270;2024-01-07T20:57:10;1.30;;;0.40;;
46751;SDS011;32497;48.936;9.270;2024-01-07T21:02:13;0.30;;;0.20;;
46751;SDS011;32497;48.936;9.270;2024-01-07T21:07:14;0.40;;;0.40;;
46751;SDS011;32497;48.936;9.270;2024-01-07T21:12:15;0.03;;;0.03;;
46751;SDS011;32497;48.936;9.270;2024-01-07T21:17:18;0.80;;;0.30;;
46751;SDS011;32497;48.936;9.270;2024-01-07T21:22:19;0.23;;;0.23;;
46751;SDS011;32497;48.936;9.270;2024-01-07T21:27:20;0.70;;;0.30;;
46751;SDS011;32497;48.936;9.270;2024-01-07T21:32:22;0.10;;;0.10;;
46751;SDS011;32497;48.936;9.270;2024-01-07T21:37:23;0.10;;;0.10;;
46751;SDS011;32497;48.936;9.270;2024-01-07T21:42:24;3.30;;;0.30;;
46751;SDS011;32497;48.936;9.270;2024-01-07T21:47:27;0.67;;;0.33;;
46751;SDS011;32497;48.936;9.270;2024-01-07T21:52:29;0.87;;;0.57;;
46751;SDS011;32497;48.936;9.270;2024-01-07T21:57:31;0.10;;;0.00;;
46751;SDS011;32497;48.936;9.270;2024-01-07T22:02:33;0.20;;;0.20;;
46751;SDS011;32497;48.936;9.270;2024-01-07T22:07:34;0.53;;;0.30;;
46751;SDS011;32497;48.936;9.270;2024-01-07T22:12:35;0.17;;;0.10;;
46751;SDS011;32497;48.936;9.270;2024-01-07T22:17:38;0.57;;;0.30;;
46751;SDS011;32497;48.936;9.270;2024-01-07T22:22:39;1.87;;;0.60;;
46751;SDS011;32497;48.936;9.270;2024-01-07T22:27:40;0.20;;;0.20;;
46751;SDS011;32497;48.936;9.270;2024-01-07T22:32:42;0.87;;;0.30;;
46751;SDS011;32497;48.936;9.270;2024-01-07T22:37:43;4.30;;;0.43;;
46751;SDS011;32497;48.936;9.270;2024-01-07T22:42:45;0.00;;;0.00;;
46751;SDS011;32497;48.936;9.270;2024-01-07T22:47:47;0.10;;;0.10;;
46751;SDS011;32497;48.936;9.270;2024-01-07T22:52:48;0.30;;;0.30;;
46751;SDS011;32497;48.936;9.270;2024-01-07T22:57:49;0.17;;;0.10;;
46751;SDS011;32497;48.936;9.270;2024-01-07T23:02:52;2.00;;;0.20;;
46751;SDS011;32497;48.936;9.270;2024-01-07T23:07:53;0.20;;;0.17;;
46751;SDS011;32497;48.936;9.270;2024-01-07T23:12:54;0.63;;;0.10;;
46751;SDS011;32497;48.936;9.270;2024-01-07T23:17:56;0.20;;;0.20;;
46751;SDS011;32497;48.936;9.270;2024-01-07T23:22:57;0.43;;;0.23;;
46751;SDS011;32497;48.936;9.270;2024-01-07T23:27:58;0.00;;;0.00;;
46751;SDS011;32497;48.936;9.270;2024-01-07T23:33:01;0.00;;;0.00;;
46751;SDS011;32497;48.936;9.270;2024-01-07T23:38:02;0.00;;;0.00;;
46751;SDS011;32497;48.936;9.270;2024-01-07T23:43:03;0.27;;;0.13;;
46751;SDS011;32497;48.936;9.270;2024-01-07T23:48:06;1.10;;;0.30;;
46751;SDS011;32497;48.936;9.270;2024-01-07T23:53:07;0.07;;;0.00;;
46751;SDS011;32497;48.936;9.270;2024-01-07T23:58:09;0.00;;;0.00;;
